sensor_id;sensor_type;location;lat;lon;timestamp;pressure;altitude;pressure_sealevel;temperature;humidity
37078;BME280;22989;55.998;37.212;2023-11-19T00:01:40;42674.16;;;-145.39;57.09
37078;BME280;22989;55.998;37.212;2023-11-19T00:04:06;42656.59;;;-145.39;57.25
37078;BME280;22989;55.998;37.212;2023-11-19T00:06:32;42631.22;;;-145.39;57.07
37078;BME280;22989;55.998;37.212;2023-11-19T00:08:57;42666.34;;;-145.39;57.03
37078;BME280;22989;55.998;37.212;2023-11-19T00:11:23;42644.88;;;-145.39;56.97
37078;BME280;22989;55.998;37.212;2023-11-19T00:13:49;42629.25;;;-145.39;57.12
37078;BME280;22989;55.998;37.212;2023-11-19T00:16:15;42631.22;;;-145.39;57.12
37078;BME280;22989;55.998;37.212;2023-11-19T00:18:41;42627.31;;;-145.39;57.29
37078;BME280;22989;55.998;37.212;2023-11-19T00:21:07;42613.63;;;-145.39;57.19
37078;BME280;22989;55.998;37.212;2023-11-19T00:23:36;42582.41;;;-145.39;57.35
37078;BME280;22989;55.998;37.212;2023-11-19T00:26:02;42557.00;;;-145.39;57.28
37078;BME280;22989;55.998;37.212;2023-11-19T00:28:32;42543.34;;;-145.39;57.30
37078;BME280;22989;55.998;37.212;2023-11-19T00:30:58;42588.25;;;-145.39;57.07
37078;BME280;22989;55.998;37.212;2023-11-19T00:33:25;42553.09;;;-145.39;57.39
37078;BME280;22989;55.998;37.212;2023-11-19T00:35:51;42541.38;;;-145.39;57.24
37078;BME280;22989;55.998;37.212;2023-11-19T00:38:16;42555.06;;;-145.39;57.28
37078;BME280;22989;55.998;37.212;2023-11-19T00:40:42;42527.72;;;-145.39;57.17
37078;BME280;22989;55.998;37.212;2023-11-19T00:43:09;42541.38;;;-145.39;57.16
37078;BME280;22989;55.998;37.212;2023-11-19T00:45:35;42508.19;;;-145.39;57.00
37078;BME280;22989;55.998;37.212;2023-11-19T00:48:00;42533.56;;;-145.39;56.92
37078;BME280;22989;55.998;37.212;2023-11-19T00:50:26;42529.66;;;-145.39;56.83
37078;BME280;22989;55.998;37.212;2023-11-19T00:52:52;42508.19;;;-145.39;56.99
37078;BME280;22989;55.998;37.212;2023-11-19T00:55:17;42463.28;;;-145.39;56.98
37078;BME280;22989;55.998;37.212;2023-11-19T00:57:43;42533.56;;;-145.39;56.79
37078;BME280;22989;55.998;37.212;2023-11-19T01:00:09;42506.25;;;-145.39;56.81
37078;BME280;22989;55.998;37.212;2023-11-19T01:02:45;42498.44;;;-145.39;57.00
37078;BME280;22989;55.998;37.212;2023-11-19T01:05:11;42514.06;;;-145.39;56.80
37078;BME280;22989;55.998;37.212;2023-11-19T01:07:39;42496.47;;;-145.39;56.83
37078;BME280;22989;55.998;37.212;2023-11-19T01:10:05;42482.81;;;-145.39;56.85
37078;BME280;22989;55.998;37.212;2023-11-19T01:12:32;42492.56;;;-145.39;57.00
37078;BME280;22989;55.998;37.212;2023-11-19T01:14:58;42463.28;;;-145.39;56.68
37078;BME280;22989;55.998;37.212;2023-11-19T01:17:24;42504.28;;;-145.39;56.80
37078;BME280;22989;55.998;37.212;2023-11-19T01:19:49;42494.53;;;-145.39;56.82
37078;BME280;22989;55.998;37.212;2023-11-19T01:22:15;42521.88;;;-145.39;56.63
37078;BME280;22989;55.998;37.212;2023-11-19T01:24:41;42517.97;;;-145.39;56.67
37078;BME280;22989;55.998;37.212;2023-11-19T01:27:07;42498.44;;;-145.39;56.55
37078;BME280;22989;55.998;37.212;2023-11-19T01:29:33;42512.09;;;-145.39;56.96
37078;BME280;22989;55.998;37.212;2023-11-19T01:31:59;42463.28;;;-145.39;56.97
37078;BME280;22989;55.998;37.212;2023-11-19T01:34:25;42476.94;;;-145.39;56.62
37078;BME280;22989;55.998;37.212;2023-11-19T01:36:50;42486.72;;;-145.39;56.74
37078;BME280;22989;55.998;37.212;2023-11-19T01:39:16;42517.97;;;-145.39;56.80
37078;BME280;22989;55.998;37.212;2023-11-19T01:41:42;42455.47;;;-145.39;56.72
37078;BME280;22989;55.998;37.212;2023-11-19T01:44:08;42461.34;;;-145.39;56.71
37078;BME280;22989;55.998;37.212;2023-11-19T01:46:35;42486.72;;;-145.39;56.80
37078;BME280;22989;55.998;37.212;2023-11-19T01:49:02;42473.03;;;-145.39;56.60
37078;BME280;22989;55.998;37.212;2023-11-19T01:51:28;42490.63;;;-145.39;56.68
37078;BME280;22989;55.998;37.212;2023-11-19T01:53:54;42463.28;;;-145.39;56.61
37078;BME280;22989;55.998;37.212;2023-11-19T01:56:22;42478.91;;;-145.39;56.63
37078;BME280;22989;55.998;37.212;2023-11-19T01:58:50;42494.53;;;-145.39;56.75
37078;BME280;22989;55.998;37.212;2023-11-19T02:01:16;42430.09;;;-145.39;56.56
37078;BME280;22989;55.998;37.212;2023-11-19T02:03:43;42428.13;;;-145.39;56.61
37078;BME280;22989;55.998;37.212;2023-11-19T02:06:08;42494.53;;;-145.39;56.58
37078;BME280;22989;55.998;37.212;2023-11-19T02:08:36;42451.56;;;-145.39;56.81
37078;BME280;22989;55.998;37.212;2023-11-19T02:11:02;42434.00;;;-145.39;56.53
37078;BME280;22989;55.998;37.212;2023-11-19T02:13:29;42475.00;;;-145.39;56.46
37078;BME280;22989;55.998;37.212;2023-11-19T02:15:54;42478.91;;;-145.39;56.56
37078;BME280;22989;55.998;37.212;2023-11-19T02:18:21;42461.34;;;-145.39;56.58
37078;BME280;22989;55.998;37.212;2023-11-19T02:20:51;42469.16;;;-145.39;56.72
37078;BME280;22989;55.998;37.212;2023-11-19T02:23:18;42437.91;;;-145.39;56.39
37078;BME280;22989;55.998;37.212;2023-11-19T02:26:14;42476.94;;;-145.39;56.44
37078;BME280;22989;55.998;37.212;2023-11-19T02:28:43;42451.56;;;-145.39;56.29
37078;BME280;22989;55.998;37.212;2023-11-19T02:31:09;42439.84;;;-145.39;56.48
37078;BME280;22989;55.998;37.212;2023-11-19T02:33:36;42473.03;;;-145.39;56.48
37078;BME280;22989;55.998;37.212;2023-11-19T02:36:04;42478.91;;;-145.39;56.50
37078;BME280;22989;55.998;37.212;2023-11-19T02:38:30;42453.53;;;-145.39;56.44
37078;BME280;22989;55.998;37.212;2023-11-19T02:40:57;42437.91;;;-145.39;56.24
37078;BME280;22989;55.998;37.212;2023-11-19T02:43:22;42475.00;;;-145.39;56.22
37078;BME280;22989;55.998;37.212;2023-11-19T02:45:48;42402.75;;;-145.39;56.31
37078;BME280;22989;55.998;37.212;2023-11-19T02:48:14;42426.19;;;-145.39;56.12
37078;BME280;22989;55.998;37.212;2023-11-19T02:50:41;42453.53;;;-145.39;56.20
37078;BME280;22989;55.998;37.212;2023-11-19T02:53:07;42451.56;;;-145.39;56.32
37078;BME280;22989;55.998;37.212;2023-11-19T02:55:33;42428.13;;;-145.39;56.33
37078;BME280;22989;55.998;37.212;2023-11-19T02:58:04;42451.56;;;-145.39;56.17
37078;BME280;22989;55.998;37.212;2023-11-19T03:00:35;42441.81;;;-145.39;56.22
37078;BME280;22989;55.998;37.212;2023-11-19T03:03:13;42449.63;;;-145.39;56.24
37078;BME280;22989;55.998;37.212;2023-11-19T03:05:48;42422.28;;;-145.39;56.07
37078;BME280;22989;55.998;37.212;2023-11-19T03:08:17;42396.91;;;-145.39;56.29
37078;BME280;22989;55.998;37.212;2023-11-19T03:10:43;42435.94;;;-145.39;56.10
37078;BME280;22989;55.998;37.212;2023-11-19T03:13:14;42426.19;;;-145.39;56.08
37078;BME280;22989;55.998;37.212;2023-11-19T03:15:40;42439.84;;;-145.39;55.97
37078;BME280;22989;55.998;37.212;2023-11-19T03:18:06;42434.00;;;-145.39;55.99
37078;BME280;22989;55.998;37.212;2023-11-19T03:20:32;42406.66;;;-145.39;55.96
37078;BME280;22989;55.998;37.212;2023-11-19T03:22:59;42396.91;;;-145.39;56.11
37078;BME280;22989;55.998;37.212;2023-11-19T03:25:25;42449.63;;;-145.39;55.90
37078;BME280;22989;55.998;37.212;2023-11-19T03:28:02;42406.66;;;-145.39;55.83
37078;BME280;22989;55.998;37.212;2023-11-19T03:30:29;42439.84;;;-145.39;55.87
37078;BME280;22989;55.998;37.212;2023-11-19T03:32:56;42430.09;;;-145.39;55.98
37078;BME280;22989;55.998;37.212;2023-11-19T03:35:22;42408.63;;;-145.39;55.88
37078;BME280;22989;55.998;37.212;2023-11-19T03:37:48;42434.00;;;-145.39;55.87
37078;BME280;22989;55.998;37.212;2023-11-19T03:40:14;42451.56;;;-145.39;56.16
37078;BME280;22989;55.998;37.212;2023-11-19T03:42:40;42461.34;;;-145.39;56.13
37078;BME280;22989;55.998;37.212;2023-11-19T03:45:06;42445.72;;;-145.39;55.88
37078;BME280;22989;55.998;37.212;2023-11-19T03:47:34;42453.53;;;-145.39;55.98
37078;BME280;22989;55.998;37.212;2023-11-19T03:50:01;42490.63;;;-145.39;55.80
37078;BME280;22989;55.998;37.212;2023-11-19T03:52:28;42404.72;;;-145.39;55.81
37078;BME280;22989;55.998;37.212;2023-11-19T03:54:55;42424.22;;;-145.39;55.92
37078;BME280;22989;55.998;37.212;2023-11-19T03:57:21;42408.63;;;-145.39;55.75
37078;BME280;22989;55.998;37.212;2023-11-19T03:59:47;42435.94;;;-145.39;55.71
37078;BME280;22989;55.998;37.212;2023-11-19T04:02:13;42410.56;;;-145.39;55.97
37078;BME280;22989;55.998;37.212;2023-11-19T04:04:39;42412.53;;;-145.39;55.90
37078;BME280;22989;55.998;37.212;2023-11-19T04:07:05;42447.66;;;-145.39;55.85
37078;BME280;22989;55.998;37.212;2023-11-19T04:09:31;42412.53;;;-145.39;55.85
37078;BME280;22989;55.998;37.212;2023-11-19T04:11:59;42398.84;;;-145.39;55.88
37078;BME280;22989;55.998;37.212;2023-11-19T04:14:26;42412.53;;;-145.39;55.72
37078;BME280;22989;55.998;37.212;2023-11-19T04:16:52;42400.81;;;-145.39;55.55
37078;BME280;22989;55.998;37.212;2023-11-19T04:19:19;42428.13;;;-145.39;55.79
37078;BME280;22989;55.998;37.212;2023-11-19T04:21:45;42422.28;;;-145.39;55.75
37078;BME280;22989;55.998;37.212;2023-11-19T04:24:12;42418.38;;;-145.39;55.76
37078;BME280;22989;55.998;37.212;2023-11-19T04:26:43;42410.56;;;-145.39;55.62
37078;BME280;22989;55.998;37.212;2023-11-19T04:29:14;42420.34;;;-145.39;55.64
37078;BME280;22989;55.998;37.212;2023-11-19T04:31:41;42428.13;;;-145.39;55.73
37078;BME280;22989;55.998;37.212;2023-11-19T04:34:07;42459.38;;;-145.39;55.71
37078;BME280;22989;55.998;37.212;2023-11-19T04:36:33;42449.63;;;-145.39;55.71
37078;BME280;22989;55.998;37.212;2023-11-19T04:39:00;42476.94;;;-145.39;55.70
37078;BME280;22989;55.998;37.212;2023-11-19T04:41:26;42484.75;;;-145.39;55.63
37078;BME280;22989;55.998;37.212;2023-11-19T04:43:55;42539.44;;;-145.39;55.85
37078;BME280;22989;55.998;37.212;2023-11-19T04:46:21;42557.00;;;-145.39;55.73
37078;BME280;22989;55.998;37.212;2023-11-19T04:48:47;42601.91;;;-145.39;55.61
37078;BME280;22989;55.998;37.212;2023-11-19T04:51:13;42797.19;;;-145.39;55.51
37078;BME280;22989;55.998;37.212;2023-11-19T04:53:38;43037.38;;;-145.39;55.68
37078;BME280;22989;55.998;37.212;2023-11-19T04:56:08;43226.81;;;-145.39;55.69
37078;BME280;22989;55.998;37.212;2023-11-19T04:58:34;43355.72;;;-145.39;55.74
37078;BME280;22989;55.998;37.212;2023-11-19T05:01:05;43412.34;;;-145.39;55.46
37078;BME280;22989;55.998;37.212;2023-11-19T05:03:31;43492.41;;;-145.39;55.58
37078;BME280;22989;55.998;37.212;2023-11-19T05:05:58;43463.13;;;-145.39;55.50
37078;BME280;22989;55.998;37.212;2023-11-19T05:08:23;43459.22;;;-145.39;55.54
37078;BME280;22989;55.998;37.212;2023-11-19T05:10:49;43467.03;;;-145.39;55.56
37078;BME280;22989;55.998;37.212;2023-11-19T05:13:15;43427.97;;;-145.39;55.48
37078;BME280;22989;55.998;37.212;2023-11-19T05:15:41;43385.00;;;-145.39;55.55
37078;BME280;22989;55.998;37.212;2023-11-19T05:18:06;43379.16;;;-145.39;55.25
37078;BME280;22989;55.998;37.212;2023-11-19T05:20:32;43447.50;;;-145.39;55.44
37078;BME280;22989;55.998;37.212;2023-11-19T05:22:58;43490.47;;;-145.39;55.46
37078;BME280;22989;55.998;37.212;2023-11-19T05:25:26;43623.28;;;-145.39;55.34
37078;BME280;22989;55.998;37.212;2023-11-19T05:27:53;43748.28;;;-145.39;55.22
37078;BME280;22989;55.998;37.212;2023-11-19T05:30:18;43785.41;;;-145.39;55.34
37078;BME280;22989;55.998;37.212;2023-11-19T05:32:44;43781.47;;;-145.39;55.46
37078;BME280;22989;55.998;37.212;2023-11-19T05:35:11;43795.16;;;-145.39;55.18
37078;BME280;22989;55.998;37.212;2023-11-19T05:37:37;43799.06;;;-145.39;55.36
37078;BME280;22989;55.998;37.212;2023-11-19T05:40:03;43890.88;;;-145.39;55.17
37078;BME280;22989;55.998;37.212;2023-11-19T05:42:32;43908.44;;;-145.39;55.10
37078;BME280;22989;55.998;37.212;2023-11-19T05:44:57;43926.03;;;-145.39;55.15
37078;BME280;22989;55.998;37.212;2023-11-19T05:47:23;43926.03;;;-145.39;55.06
37078;BME280;22989;55.998;37.212;2023-11-19T05:49:49;43963.13;;;-145.39;54.95
37078;BME280;22989;55.998;37.212;2023-11-19T05:52:14;44060.81;;;-145.39;55.06
37078;BME280;22989;55.998;37.212;2023-11-19T05:54:40;44090.09;;;-145.39;54.95
37078;BME280;22989;55.998;37.212;2023-11-19T05:57:07;44078.38;;;-145.39;54.88
37078;BME280;22989;55.998;37.212;2023-11-19T05:59:36;43951.41;;;-145.39;54.83
37078;BME280;22989;55.998;37.212;2023-11-19T06:02:04;44064.72;;;-145.39;55.00
37078;BME280;22989;55.998;37.212;2023-11-19T06:04:30;44127.22;;;-145.39;54.79
37078;BME280;22989;55.998;37.212;2023-11-19T06:06:56;44137.00;;;-145.39;54.90
37078;BME280;22989;55.998;37.212;2023-11-19T06:09:22;44080.34;;;-145.39;54.81
37078;BME280;22989;55.998;37.212;2023-11-19T06:11:51;44099.88;;;-145.39;54.67
37078;BME280;22989;55.998;37.212;2023-11-19T06:14:18;44137.00;;;-145.39;54.57
37078;BME280;22989;55.998;37.212;2023-11-19T06:16:44;44176.06;;;-145.39;54.71
37078;BME280;22989;55.998;37.212;2023-11-19T06:19:10;44199.50;;;-145.39;54.68
37078;BME280;22989;55.998;37.212;2023-11-19T06:21:37;44232.69;;;-145.39;54.68
37078;BME280;22989;55.998;37.212;2023-11-19T06:24:03;44263.97;;;-145.39;54.49
37078;BME280;22989;55.998;37.212;2023-11-19T06:26:28;44248.34;;;-145.39;54.51
37078;BME280;22989;55.998;37.212;2023-11-19T06:28:54;44293.25;;;-145.39;54.61
37078;BME280;22989;55.998;37.212;2023-11-19T06:31:20;44275.69;;;-145.39;54.46
37078;BME280;22989;55.998;37.212;2023-11-19T06:33:46;44252.25;;;-145.39;54.49
37078;BME280;22989;55.998;37.212;2023-11-19T06:36:14;44240.53;;;-145.39;54.26
37078;BME280;22989;55.998;37.212;2023-11-19T06:38:42;44228.78;;;-145.39;54.32
37078;BME280;22989;55.998;37.212;2023-11-19T06:41:09;44271.78;;;-145.39;54.15
37078;BME280;22989;55.998;37.212;2023-11-19T06:43:36;44262.00;;;-145.39;54.20
37078;BME280;22989;55.998;37.212;2023-11-19T06:46:02;44275.69;;;-145.39;54.21
37078;BME280;22989;55.998;37.212;2023-11-19T06:48:27;44242.47;;;-145.39;54.01
37078;BME280;22989;55.998;37.212;2023-11-19T06:50:53;44217.06;;;-145.39;54.03
37078;BME280;22989;55.998;37.212;2023-11-19T06:53:19;44277.63;;;-145.39;53.76
37078;BME280;22989;55.998;37.212;2023-11-19T06:55:44;44322.56;;;-145.39;53.98
37078;BME280;22989;55.998;37.212;2023-11-19T06:58:10;44328.44;;;-145.39;53.93
37078;BME280;22989;55.998;37.212;2023-11-19T07:00:37;44324.53;;;-145.39;53.71
37078;BME280;22989;55.998;37.212;2023-11-19T07:03:03;44390.94;;;-145.39;53.65
37078;BME280;22989;55.998;37.212;2023-11-19T07:05:29;44428.06;;;-145.39;53.55
37078;BME280;22989;55.998;37.212;2023-11-19T07:07:55;44390.94;;;-145.39;53.39
37078;BME280;22989;55.998;37.212;2023-11-19T07:10:21;44330.38;;;-145.39;53.63
37078;BME280;22989;55.998;37.212;2023-11-19T07:12:46;44297.16;;;-145.39;53.39
37078;BME280;22989;55.998;37.212;2023-11-19T07:15:12;44250.28;;;-145.39;53.24
37078;BME280;22989;55.998;37.212;2023-11-19T07:17:39;44174.09;;;-145.39;53.31
37078;BME280;22989;55.998;37.212;2023-11-19T07:20:05;44187.78;;;-145.39;53.44
37078;BME280;22989;55.998;37.212;2023-11-19T07:22:31;44375.31;;;-145.39;53.28
37078;BME280;22989;55.998;37.212;2023-11-19T07:24:57;44418.28;;;-145.39;53.06
37078;BME280;22989;55.998;37.212;2023-11-19T07:27:23;44404.59;;;-145.39;53.13
37078;BME280;22989;55.998;37.212;2023-11-19T07:29:49;44340.16;;;-145.39;52.99
37078;BME280;22989;55.998;37.212;2023-11-19T07:32:15;44349.91;;;-145.39;52.91
37078;BME280;22989;55.998;37.212;2023-11-19T07:34:41;44377.25;;;-145.39;53.00
37078;BME280;22989;55.998;37.212;2023-11-19T07:37:06;44377.25;;;-145.39;52.71
37078;BME280;22989;55.998;37.212;2023-11-19T07:39:32;44314.75;;;-145.39;52.85
37078;BME280;22989;55.998;37.212;2023-11-19T07:41:58;44340.16;;;-145.39;52.86
37078;BME280;22989;55.998;37.212;2023-11-19T07:44:24;44367.50;;;-145.39;52.78
37078;BME280;22989;55.998;37.212;2023-11-19T07:46:50;44392.88;;;-145.39;52.73
37078;BME280;22989;55.998;37.212;2023-11-19T07:49:16;44330.38;;;-145.39;52.69
37078;BME280;22989;55.998;37.212;2023-11-19T07:51:41;44404.59;;;-145.39;52.58
37078;BME280;22989;55.998;37.212;2023-11-19T07:54:07;44418.28;;;-145.39;52.50
37078;BME280;22989;55.998;37.212;2023-11-19T07:56:33;44453.44;;;-145.39;52.56
37078;BME280;22989;55.998;37.212;2023-11-19T07:59:04;44492.53;;;-145.39;52.39
37078;BME280;22989;55.998;37.212;2023-11-19T08:01:30;44457.34;;;-145.39;52.31
37078;BME280;22989;55.998;37.212;2023-11-19T08:03:56;44484.72;;;-145.39;52.20
37078;BME280;22989;55.998;37.212;2023-11-19T08:06:22;44504.25;;;-145.39;52.20
37078;BME280;22989;55.998;37.212;2023-11-19T08:08:48;44578.47;;;-145.39;52.16
37078;BME280;22989;55.998;37.212;2023-11-19T08:11:13;44572.63;;;-145.39;51.87
37078;BME280;22989;55.998;37.212;2023-11-19T08:13:40;44541.34;;;-145.39;51.78
37078;BME280;22989;55.998;37.212;2023-11-19T08:16:06;44525.72;;;-145.39;51.70
37078;BME280;22989;55.998;37.212;2023-11-19T08:18:32;44478.84;;;-145.39;51.52
37078;BME280;22989;55.998;37.212;2023-11-19T08:20:57;44484.72;;;-145.39;51.29
37078;BME280;22989;55.998;37.212;2023-11-19T08:23:24;44422.19;;;-145.39;51.38
37078;BME280;22989;55.998;37.212;2023-11-19T08:25:51;44375.31;;;-145.39;51.14
37078;BME280;22989;55.998;37.212;2023-11-19T08:28:17;44349.91;;;-145.39;51.00
37078;BME280;22989;55.998;37.212;2023-11-19T08:30:42;44377.25;;;-145.39;51.10
37078;BME280;22989;55.998;37.212;2023-11-19T08:33:09;44390.94;;;-145.39;51.12
37078;BME280;22989;55.998;37.212;2023-11-19T08:35:35;44369.44;;;-145.39;50.88
37078;BME280;22989;55.998;37.212;2023-11-19T08:38:01;44486.66;;;-145.39;50.56
37078;BME280;22989;55.998;37.212;2023-11-19T08:40:27;44545.25;;;-145.39;50.60
37078;BME280;22989;55.998;37.212;2023-11-19T08:42:53;44549.19;;;-145.39;50.31
37078;BME280;22989;55.998;37.212;2023-11-19T08:45:19;44568.72;;;-145.39;50.49
37078;BME280;22989;55.998;37.212;2023-11-19T08:47:45;44545.25;;;-145.39;50.08
37078;BME280;22989;55.998;37.212;2023-11-19T08:50:11;44498.38;;;-145.39;50.19
37078;BME280;22989;55.998;37.212;2023-11-19T08:52:37;44471.03;;;-145.39;49.85
37078;BME280;22989;55.998;37.212;2023-11-19T08:55:04;44506.19;;;-145.39;49.65
37078;BME280;22989;55.998;37.212;2023-11-19T08:57:31;44539.41;;;-145.39;49.52
37078;BME280;22989;55.998;37.212;2023-11-19T08:59:58;44500.34;;;-145.39;49.52
37078;BME280;22989;55.998;37.212;2023-11-19T09:02:24;44441.72;;;-145.39;49.23
37078;BME280;22989;55.998;37.212;2023-11-19T09:04:50;44476.88;;;-145.39;49.20
37078;BME280;22989;55.998;37.212;2023-11-19T09:07:16;44514.00;;;-145.39;49.16
37078;BME280;22989;55.998;37.212;2023-11-19T09:09:41;44478.84;;;-145.39;48.92
37078;BME280;22989;55.998;37.212;2023-11-19T09:12:07;44494.47;;;-145.39;48.93
37078;BME280;22989;55.998;37.212;2023-11-19T09:14:33;44388.97;;;-145.39;48.77
37078;BME280;22989;55.998;37.212;2023-11-19T09:16:58;44336.25;;;-145.39;48.49
37078;BME280;22989;55.998;37.212;2023-11-19T09:19:25;44285.44;;;-145.39;48.46
37078;BME280;22989;55.998;37.212;2023-11-19T09:21:54;44355.78;;;-145.39;48.40
37078;BME280;22989;55.998;37.212;2023-11-19T09:24:20;44283.50;;;-145.39;48.15
37078;BME280;22989;55.998;37.212;2023-11-19T09:26:45;44232.69;;;-145.39;48.41
37078;BME280;22989;55.998;37.212;2023-11-19T09:29:11;44316.69;;;-145.39;48.28
37078;BME280;22989;55.998;37.212;2023-11-19T09:31:40;44283.50;;;-145.39;47.93
37078;BME280;22989;55.998;37.212;2023-11-19T09:34:06;44244.44;;;-145.39;47.95
37078;BME280;22989;55.998;37.212;2023-11-19T09:36:32;44355.78;;;-145.39;47.76
37078;BME280;22989;55.998;37.212;2023-11-19T09:38:57;44303.03;;;-145.39;47.91
37078;BME280;22989;55.998;37.212;2023-11-19T09:41:25;44269.81;;;-145.39;47.84
37078;BME280;22989;55.998;37.212;2023-11-19T09:43:53;44244.44;;;-145.39;47.62
37078;BME280;22989;55.998;37.212;2023-11-19T09:46:19;44199.50;;;-145.39;47.57
37078;BME280;22989;55.998;37.212;2023-11-19T09:48:45;44265.91;;;-145.39;47.66
37078;BME280;22989;55.998;37.212;2023-11-19T09:51:11;44422.19;;;-145.39;47.54
37078;BME280;22989;55.998;37.212;2023-11-19T09:53:37;44361.63;;;-145.39;47.57
37078;BME280;22989;55.998;37.212;2023-11-19T09:56:05;44394.84;;;-145.39;47.42
37078;BME280;22989;55.998;37.212;2023-11-19T09:58:32;44332.34;;;-145.39;47.32
37078;BME280;22989;55.998;37.212;2023-11-19T10:00:59;44338.19;;;-145.39;47.39
37078;BME280;22989;55.998;37.212;2023-11-19T10:03:33;44463.22;;;-145.39;47.39
37078;BME280;22989;55.998;37.212;2023-11-19T10:06:01;44457.34;;;-145.39;47.19
37078;BME280;22989;55.998;37.212;2023-11-19T10:08:26;44480.81;;;-145.39;47.11
37078;BME280;22989;55.998;37.212;2023-11-19T10:10:52;44375.31;;;-145.39;46.71
37078;BME280;22989;55.998;37.212;2023-11-19T10:13:18;44558.94;;;-145.39;46.70
37078;BME280;22989;55.998;37.212;2023-11-19T10:15:44;44514.00;;;-145.39;46.98
37078;BME280;22989;55.998;37.212;2023-11-19T10:18:09;44549.19;;;-145.39;46.68
37078;BME280;22989;55.998;37.212;2023-11-19T10:20:45;44615.59;;;-145.39;46.34
37078;BME280;22989;55.998;37.212;2023-11-19T10:23:10;44605.81;;;-145.39;46.42
37078;BME280;22989;55.998;37.212;2023-11-19T10:25:37;44553.09;;;-145.39;46.20
37078;BME280;22989;55.998;37.212;2023-11-19T10:28:03;44461.25;;;-145.39;46.42
37078;BME280;22989;55.998;37.212;2023-11-19T10:30:30;44420.25;;;-145.39;46.46
37078;BME280;22989;55.998;37.212;2023-11-19T10:33:12;44402.66;;;-145.39;46.01
37078;BME280;22989;55.998;37.212;2023-11-19T10:35:58;44398.75;;;-145.39;45.92
37078;BME280;22989;55.998;37.212;2023-11-19T10:38:24;44402.66;;;-145.39;46.23
37078;BME280;22989;55.998;37.212;2023-11-19T10:40:51;44385.06;;;-145.39;46.35
37078;BME280;22989;55.998;37.212;2023-11-19T10:43:18;44359.69;;;-145.39;46.46
37078;BME280;22989;55.998;37.212;2023-11-19T10:45:44;44271.78;;;-145.39;46.41
37078;BME280;22989;55.998;37.212;2023-11-19T10:48:10;44256.16;;;-145.39;46.54
37078;BME280;22989;55.998;37.212;2023-11-19T10:50:37;44162.38;;;-145.39;46.39
37078;BME280;22989;55.998;37.212;2023-11-19T10:53:04;44164.34;;;-145.39;46.10
37078;BME280;22989;55.998;37.212;2023-11-19T10:55:37;44158.47;;;-145.39;46.35
37078;BME280;22989;55.998;37.212;2023-11-19T10:58:10;44150.66;;;-145.39;46.26
37078;BME280;22989;55.998;37.212;2023-11-19T11:00:52;44185.81;;;-145.39;46.18
37078;BME280;22989;55.998;37.212;2023-11-19T11:03:24;44219.03;;;-145.39;45.92
37078;BME280;22989;55.998;37.212;2023-11-19T11:05:53;44287.41;;;-145.39;46.07
37078;BME280;22989;55.998;37.212;2023-11-19T11:08:19;44326.47;;;-145.39;46.14
37078;BME280;22989;55.998;37.212;2023-11-19T11:10:57;44330.38;;;-145.39;45.74
37078;BME280;22989;55.998;37.212;2023-11-19T11:13:24;44328.44;;;-145.39;46.09
37078;BME280;22989;55.998;37.212;2023-11-19T11:15:51;44310.84;;;-145.39;46.01
37078;BME280;22989;55.998;37.212;2023-11-19T11:18:17;44314.75;;;-145.39;45.89
37078;BME280;22989;55.998;37.212;2023-11-19T11:20:47;44314.75;;;-145.39;45.92
37078;BME280;22989;55.998;37.212;2023-11-19T11:29:51;44260.06;;;-145.39;45.99
37078;BME280;22989;55.998;37.212;2023-11-19T11:35:49;44293.25;;;-145.39;45.90
37078;BME280;22989;55.998;37.212;2023-11-19T11:38:21;44291.31;;;-145.39;46.12
37078;BME280;22989;55.998;37.212;2023-11-19T11:41:16;44277.63;;;-145.39;45.97
37078;BME280;22989;55.998;37.212;2023-11-19T11:43:46;44254.19;;;-145.39;45.92
37078;BME280;22989;55.998;37.212;2023-11-19T11:49:05;44314.75;;;-145.39;45.87
37078;BME280;22989;55.998;37.212;2023-11-19T11:54:10;44256.16;;;-145.39;46.02
37078;BME280;22989;55.998;37.212;2023-11-19T11:56:39;44279.59;;;-145.39;46.09
37078;BME280;22989;55.998;37.212;2023-11-19T11:59:08;44234.66;;;-145.39;46.14
37078;BME280;22989;55.998;37.212;2023-11-19T12:01:35;44217.06;;;-145.39;46.00
37078;BME280;22989;55.998;37.212;2023-11-19T12:04:00;44224.88;;;-145.39;46.13
37078;BME280;22989;55.998;37.212;2023-11-19T12:06:27;44209.25;;;-145.39;46.26
37078;BME280;22989;55.998;37.212;2023-11-19T12:08:59;44203.41;;;-145.39;46.02
37078;BME280;22989;55.998;37.212;2023-11-19T12:11:25;44191.69;;;-145.39;46.40
37078;BME280;22989;55.998;37.212;2023-11-19T12:13:54;44193.63;;;-145.39;46.12
37078;BME280;22989;55.998;37.212;2023-11-19T12:16:23;44197.53;;;-145.39;46.18
37078;BME280;22989;55.998;37.212;2023-11-19T12:18:49;44201.44;;;-145.39;46.14
37078;BME280;22989;55.998;37.212;2023-11-19T12:21:31;44162.38;;;-145.39;46.41
37078;BME280;22989;55.998;37.212;2023-11-19T12:23:58;44133.09;;;-145.39;46.22
37078;BME280;22989;55.998;37.212;2023-11-19T12:26:47;44092.06;;;-145.39;46.33
37078;BME280;22989;55.998;37.212;2023-11-19T12:29:15;44105.72;;;-145.39;46.26
37078;BME280;22989;55.998;37.212;2023-11-19T12:31:44;44045.19;;;-145.39;46.34
37078;BME280;22989;55.998;37.212;2023-11-19T12:34:10;44002.22;;;-145.39;46.41
37078;BME280;22989;55.998;37.212;2023-11-19T12:36:37;43994.38;;;-145.39;46.64
37078;BME280;22989;55.998;37.212;2023-11-19T12:39:03;43986.56;;;-145.39;46.63
37078;BME280;22989;55.998;37.212;2023-11-19T12:41:29;43945.56;;;-145.39;46.68
37078;BME280;22989;55.998;37.212;2023-11-19T12:44:09;43892.81;;;-145.39;46.49
37078;BME280;22989;55.998;37.212;2023-11-19T12:46:34;43849.84;;;-145.39;46.76